createdAt,value
2022-12-05T00:02:00.757Z,38.22
2022-12-05T00:04:29.190Z,38.71
2022-12-05T00:06:57.662Z,38.49
2022-12-05T00:09:25.885Z,38.70
2022-12-05T00:11:54.073Z,38.14
2022-12-05T00:14:23.741Z,38.45
2022-12-05T00:16:51.981Z,38.43
2022-12-05T00:19:20.200Z,38.72
2022-12-05T00:21:48.361Z,38.31
2022-12-05T00:24:16.933Z,38.35
2022-12-05T00:26:45.065Z,38.61
2022-12-05T00:29:13.529Z,37.77
2022-12-05T00:31:43.157Z,37.90
2022-12-05T00:34:11.439Z,37.97
2022-12-05T00:36:39.636Z,38.35
2022-12-05T00:39:08.858Z,38.38
2022-12-05T00:41:37.152Z,38.65
2022-12-05T00:44:05.578Z,38.18
2022-12-05T00:46:34.115Z,38.29
2022-12-05T00:49:04.216Z,38.39
2022-12-05T00:51:33.170Z,38.75
2022-12-05T00:54:01.969Z,38.15
2022-12-05T00:56:30.820Z,38.66
2022-12-05T00:58:59.429Z,38.04
2022-12-05T01:01:29.763Z,38.19
2022-12-05T01:03:58.756Z,37.98
2022-12-05T01:06:28.647Z,38.21
2022-12-05T01:08:57.029Z,38.33
2022-12-05T01:11:25.313Z,38.49
2022-12-05T01:13:53.840Z,38.55
2022-12-05T01:16:23.393Z,38.56
2022-12-05T01:18:51.638Z,37.97
2022-12-05T01:21:19.784Z,38.08
2022-12-05T01:23:49.323Z,38.69
2022-12-05T01:26:18.405Z,38.20
2022-12-05T01:28:46.718Z,38.48
2022-12-05T01:31:18.126Z,38.18
2022-12-05T01:33:46.311Z,38.63
2022-12-05T01:36:14.505Z,38.15
2022-12-05T01:38:42.917Z,38.53
2022-12-05T01:41:13.595Z,38.21
2022-12-05T01:43:58.289Z,38.66
2022-12-05T01:46:26.797Z,38.61
2022-12-05T01:48:57.106Z,38.50
2022-12-05T01:51:25.492Z,38.44
2022-12-05T01:53:53.677Z,38.35
2022-12-05T01:56:23.645Z,38.04
2022-12-05T01:58:51.972Z,38.44
2022-12-05T02:01:20.744Z,38.23
2022-12-05T02:03:50.592Z,38.64
2022-12-05T02:06:18.979Z,38.64
2022-12-05T02:08:47.258Z,38.15
2022-12-05T02:11:15.462Z,38.04
2022-12-05T02:13:54.912Z,38.23
2022-12-05T02:16:28.896Z,38.38
2022-12-05T02:19:01.586Z,38.29
2022-12-05T02:21:55.572Z,38.68
2022-12-05T02:24:49.055Z,38.74
2022-12-05T02:27:25.716Z,38.52
2022-12-05T02:30:16.427Z,38.47
2022-12-05T02:33:02.498Z,38.38
2022-12-05T02:35:45.415Z,38.52
2022-12-05T02:38:18.921Z,38.28
2022-12-05T02:40:52.257Z,38.55
2022-12-05T02:43:21.496Z,38.56
2022-12-05T02:45:52.466Z,38.16
2022-12-05T02:48:20.923Z,38.64
2022-12-05T02:50:49.170Z,38.24
2022-12-05T02:53:17.680Z,38.36
2022-12-05T02:55:45.934Z,38.65
2022-12-05T02:58:15.936Z,38.69
2022-12-05T03:00:45.541Z,38.37
2022-12-05T03:03:16.679Z,38.24
2022-12-05T03:05:48.415Z,38.57
2022-12-05T03:08:18.057Z,38.29
2022-12-05T03:10:46.301Z,38.11
2022-12-05T03:13:16.369Z,38.23
2022-12-05T03:15:46.922Z,38.29
2022-12-05T03:18:18.045Z,37.94
2022-12-05T03:20:47.261Z,38.65
2022-12-05T03:23:16.924Z,38.84
2022-12-05T03:25:50.002Z,38.60
2022-12-05T03:28:20.214Z,37.95
2022-12-05T03:30:48.974Z,38.62
2022-12-05T03:33:20.093Z,38.54
2022-12-05T03:35:51.921Z,38.70
2022-12-05T03:38:22.011Z,38.33
2022-12-05T03:40:51.529Z,38.22
2022-12-05T03:43:23.540Z,37.74
2022-12-05T03:45:54.714Z,37.93
2022-12-05T03:48:27.292Z,38.03
2022-12-05T03:50:55.585Z,38.51
2022-12-05T03:53:26.037Z,37.84
2022-12-05T03:55:58.553Z,38.18
2022-12-05T03:58:29.320Z,38.00
2022-12-05T04:00:58.029Z,38.48
2022-12-05T04:03:39.187Z,38.05
2022-12-05T04:06:10.280Z,38.55
2022-12-05T04:08:40.345Z,38.02
2022-12-05T04:11:09.710Z,38.00
2022-12-05T04:13:40.748Z,38.42
2022-12-05T04:16:28.937Z,38.14
2022-12-05T04:19:00.280Z,37.89
2022-12-05T04:21:38.607Z,37.89
2022-12-05T04:24:30.560Z,38.50
2022-12-05T04:27:07.307Z,38.65
2022-12-05T04:29:38.892Z,38.59
2022-12-05T04:32:09.144Z,38.64
2022-12-05T04:34:38.745Z,38.26
2022-12-05T04:37:08.803Z,38.47
2022-12-05T04:39:38.700Z,38.11
2022-12-05T04:42:07.761Z,38.22
2022-12-05T04:44:37.768Z,38.23
2022-12-05T04:47:06.677Z,38.27
2022-12-05T04:49:35.118Z,38.38
2022-12-05T04:52:06.197Z,38.52
2022-12-05T04:54:37.608Z,38.38
2022-12-05T04:57:09.366Z,38.02
2022-12-05T04:59:37.558Z,38.07
2022-12-05T05:02:08.111Z,37.88
2022-12-05T05:04:37.435Z,38.35
2022-12-05T05:07:08.589Z,38.58
2022-12-05T05:09:36.843Z,37.95
2022-12-05T05:12:05.355Z,38.57
2022-12-05T05:14:33.572Z,38.38
2022-12-05T05:17:01.744Z,38.66
2022-12-05T05:19:29.981Z,38.18
2022-12-05T05:21:58.122Z,38.71
2022-12-05T05:24:27.674Z,38.65
2022-12-05T05:26:57.604Z,38.61
2022-12-05T05:29:26.038Z,38.52
2022-12-05T05:31:54.110Z,38.33
2022-12-05T05:34:22.277Z,38.13
2022-12-05T05:36:53.043Z,37.97
2022-12-05T05:39:21.317Z,38.59
2022-12-05T05:41:50.961Z,37.95
2022-12-05T05:44:19.305Z,38.02
2022-12-05T05:46:47.866Z,37.95
2022-12-05T05:49:16.204Z,38.23
2022-12-05T05:51:44.392Z,38.52
2022-12-05T05:54:12.659Z,38.07
2022-12-05T05:56:41.819Z,37.87
2022-12-05T05:59:11.930Z,38.05
2022-12-05T06:01:40.294Z,38.08
2022-12-05T06:04:08.738Z,38.62
2022-12-05T06:06:37.206Z,38.55
2022-12-05T06:09:07.493Z,37.97
2022-12-05T06:11:35.861Z,38.36
2022-12-05T06:14:04.060Z,38.44
2022-12-05T06:16:33.839Z,38.41
2022-12-05T06:19:02.241Z,38.02
2022-12-05T06:21:30.461Z,38.39
2022-12-05T06:23:58.728Z,38.26
2022-12-05T06:26:26.987Z,38.38
2022-12-05T06:28:55.262Z,38.74
2022-12-05T06:31:24.596Z,38.08
2022-12-05T06:33:54.772Z,37.99
2022-12-05T06:36:23.215Z,38.62
2022-12-05T06:38:51.460Z,38.54
2022-12-05T06:41:20.713Z,38.25
2022-12-05T06:43:49.025Z,38.25
2022-12-05T06:46:18.323Z,38.72
2022-12-05T06:48:46.553Z,38.53
2022-12-05T06:51:17.377Z,38.57
2022-12-05T06:53:45.699Z,38.98
2022-12-05T06:56:14.997Z,38.37
2022-12-05T06:58:43.293Z,38.95
2022-12-05T07:01:30.485Z,38.66
2022-12-05T07:03:59.126Z,38.41
2022-12-05T07:06:28.724Z,38.55
2022-12-05T07:08:56.945Z,38.78
2022-12-05T07:11:25.013Z,38.13
2022-12-05T07:13:53.188Z,38.44
2022-12-05T07:16:21.367Z,38.66
2022-12-05T07:18:50.207Z,38.80
2022-12-05T07:21:18.710Z,38.24
2022-12-05T07:23:48.400Z,38.12
2022-12-05T07:26:17.568Z,38.48
2022-12-05T07:28:46.210Z,38.39
2022-12-05T07:31:15.516Z,38.63
2022-12-05T07:33:43.929Z,38.73
2022-12-05T07:36:13.116Z,38.19
2022-12-05T07:38:41.558Z,38.39
2022-12-05T07:41:13.678Z,38.12
2022-12-05T07:43:42.173Z,38.29
2022-12-05T07:46:12.879Z,38.39
2022-12-05T07:48:41.474Z,38.03
2022-12-05T07:51:10.209Z,38.15
2022-12-05T07:53:39.070Z,37.99
2022-12-05T07:56:08.248Z,38.44
2022-12-05T07:58:38.311Z,37.78
2022-12-05T08:01:10.511Z,38.37
2022-12-05T08:03:38.956Z,38.63
2022-12-05T08:06:08.264Z,38.46
2022-12-05T08:08:36.572Z,38.61
2022-12-05T08:11:05.258Z,38.06
2022-12-05T08:13:33.542Z,38.37
2022-12-05T08:16:07.144Z,38.38
2022-12-05T08:18:35.594Z,38.42
2022-12-05T08:21:04.191Z,37.94
2022-12-05T08:23:32.717Z,38.30
2022-12-05T08:26:04.138Z,38.04
2022-12-05T08:28:32.821Z,37.96
2022-12-05T08:31:06.707Z,37.77
2022-12-05T08:33:35.109Z,37.97
2022-12-05T08:36:03.805Z,38.07
2022-12-05T08:38:32.350Z,38.00
2022-12-05T08:41:02.345Z,38.03
2022-12-05T08:43:30.864Z,37.59
2022-12-05T08:45:59.319Z,37.96
2022-12-05T08:48:29.916Z,37.53
2022-12-05T08:50:58.336Z,37.67
2022-12-05T08:53:26.857Z,37.31
2022-12-05T08:55:55.109Z,37.50
2022-12-05T08:58:23.310Z,37.48
2022-12-05T09:00:51.654Z,36.77
2022-12-05T09:03:19.877Z,37.07
2022-12-05T09:05:54.696Z,36.78
2022-12-05T09:08:23.334Z,37.29
2022-12-05T09:10:51.546Z,37.11
2022-12-05T09:13:21.372Z,36.93
2022-12-05T09:15:49.728Z,36.58
2022-12-05T09:18:18.005Z,36.28
2022-12-05T09:20:46.287Z,36.97
2022-12-05T09:23:16.357Z,36.48
2022-12-05T09:25:44.661Z,36.69
2022-12-05T09:28:13.027Z,36.35
2022-12-05T09:30:41.459Z,36.59
2022-12-05T09:33:09.981Z,36.56
2022-12-05T09:35:40.886Z,36.39
2022-12-05T09:38:09.125Z,35.99
2022-12-05T09:40:40.986Z,35.88
2022-12-05T09:43:09.236Z,35.81
2022-12-05T09:45:38.182Z,36.21
2022-12-05T09:48:07.926Z,36.03
2022-12-05T09:50:36.873Z,36.21
2022-12-05T09:53:25.577Z,35.83
2022-12-05T09:55:57.694Z,35.55
2022-12-05T09:58:31.954Z,35.61
2022-12-05T10:01:03.712Z,36.21
2022-12-05T10:03:37.405Z,35.10
2022-12-05T10:06:14.353Z,35.74
2022-12-05T10:08:51.217Z,35.22
2022-12-05T10:11:23.720Z,35.66
2022-12-05T10:13:54.503Z,35.55
2022-12-05T10:16:25.308Z,35.38
2022-12-05T10:18:55.879Z,35.86
2022-12-05T10:21:26.525Z,35.65
2022-12-05T10:23:58.616Z,35.66
2022-12-05T10:26:30.623Z,35.47
2022-12-05T10:29:01.950Z,35.99
2022-12-05T10:31:32.368Z,36.24
2022-12-05T10:34:04.679Z,36.72
2022-12-05T10:36:33.332Z,36.96
2022-12-05T10:39:01.613Z,36.67
2022-12-05T10:41:31.860Z,37.16
2022-12-05T10:44:00.138Z,36.81
2022-12-05T10:46:28.492Z,36.71
2022-12-05T10:48:56.895Z,36.64
2022-12-05T10:51:31.293Z,37.20
2022-12-05T10:54:04.186Z,36.62
2022-12-05T10:56:44.282Z,37.15
2022-12-05T10:59:13.529Z,37.29
2022-12-05T11:01:46.425Z,37.11
2022-12-05T11:04:23.963Z,37.06
2022-12-05T11:06:57.765Z,37.00
2022-12-05T11:09:27.014Z,37.57
2022-12-05T11:12:03.073Z,37.58
2022-12-05T11:14:33.444Z,36.98
2022-12-05T11:17:02.720Z,37.54
2022-12-05T11:19:32.405Z,37.25
2022-12-05T11:22:00.839Z,37.20
2022-12-05T11:24:30.080Z,36.91
2022-12-05T11:27:00.352Z,36.92
2022-12-05T11:29:36.090Z,37.06
2022-12-05T11:32:05.606Z,36.75
2022-12-05T11:34:37.651Z,36.58
2022-12-05T11:37:08.139Z,36.63
2022-12-05T11:39:36.486Z,36.88
2022-12-05T11:42:29.832Z,36.91
2022-12-05T11:45:18.781Z,37.00
2022-12-05T11:48:05.378Z,37.28
2022-12-05T11:50:38.777Z,37.61
2022-12-05T11:53:28.672Z,37.62
2022-12-05T11:56:00.812Z,37.51
2022-12-05T11:58:41.611Z,37.75
2022-12-05T12:01:13.781Z,37.66
2022-12-05T12:03:56.317Z,37.94
2022-12-05T12:06:28.648Z,37.46
2022-12-05T12:09:09.569Z,38.45
2022-12-05T12:11:40.778Z,37.47
2022-12-05T12:14:14.544Z,37.43
2022-12-05T12:16:46.866Z,37.61
2022-12-05T12:19:23.105Z,37.96
2022-12-05T12:22:02.006Z,37.63
2022-12-05T12:24:35.644Z,38.12
2022-12-05T12:27:07.069Z,38.20
2022-12-05T12:29:46.725Z,37.65
2022-12-05T12:32:22.530Z,38.06
2022-12-05T12:35:00.024Z,38.52
2022-12-05T12:37:32.137Z,38.08
2022-12-05T12:40:03.035Z,38.51
2022-12-05T12:42:33.141Z,38.03
2022-12-05T12:45:21.779Z,38.21
2022-12-05T12:47:57.921Z,38.43
2022-12-05T12:50:26.730Z,38.33
2022-12-05T12:53:22.441Z,38.44
2022-12-05T12:55:54.369Z,38.26
2022-12-05T12:58:30.844Z,38.10
2022-12-05T13:01:05.167Z,38.17
2022-12-05T13:03:36.762Z,38.12
2022-12-05T13:06:06.553Z,38.31
2022-12-05T13:08:36.889Z,38.43
2022-12-05T13:11:07.192Z,38.27
2022-12-05T13:13:37.039Z,38.19
2022-12-05T13:16:08.147Z,38.73
2022-12-05T13:18:36.435Z,38.69
2022-12-05T13:21:07.957Z,38.54
2022-12-05T13:23:38.160Z,38.36
2022-12-05T13:26:10.011Z,38.80
2022-12-05T13:28:42.147Z,38.75
2022-12-05T13:31:14.305Z,38.48
2022-12-05T13:33:44.702Z,38.31
2022-12-05T13:36:31.345Z,38.86
2022-12-05T13:39:17.990Z,38.73
2022-12-05T13:42:04.229Z,38.75
2022-12-05T13:44:38.315Z,38.12
2022-12-05T13:47:10.231Z,38.31
2022-12-05T13:49:44.776Z,38.39
2022-12-05T13:52:15.997Z,38.17
2022-12-05T13:54:46.489Z,38.06
2022-12-05T13:57:55.546Z,38.64
2022-12-05T14:00:28.745Z,38.62
2022-12-05T14:03:04.732Z,38.52
2022-12-05T14:05:44.185Z,38.37
2022-12-05T14:08:48.173Z,38.04
2022-12-05T14:11:16.478Z,38.26
2022-12-05T14:13:45.253Z,38.14
2022-12-05T14:16:44.560Z,38.51
2022-12-05T14:19:35.782Z,38.28
2022-12-05T14:22:10.533Z,38.00
2022-12-05T14:24:42.023Z,38.81
2022-12-05T14:27:13.976Z,38.29
2022-12-05T14:29:48.961Z,38.32
2022-12-05T14:32:24.083Z,38.44
2022-12-05T14:35:05.427Z,38.45
2022-12-05T14:37:34.649Z,38.09
2022-12-05T14:40:03.779Z,37.87
2022-12-05T14:42:37.183Z,38.23
2022-12-05T14:45:22.886Z,38.50
2022-12-05T14:47:52.079Z,37.77
2022-12-05T14:50:36.359Z,38.33
2022-12-05T14:53:32.524Z,38.07
2022-12-05T14:56:08.998Z,38.06
2022-12-05T14:58:39.059Z,38.14
2022-12-05T15:01:09.239Z,38.45
2022-12-05T15:03:39.502Z,38.02
2022-12-05T15:06:15.563Z,38.45
2022-12-05T15:08:46.337Z,37.81
2022-12-05T15:11:28.335Z,37.44
2022-12-05T15:13:59.466Z,37.84
2022-12-05T15:16:30.028Z,38.34
2022-12-05T15:19:00.201Z,38.03
2022-12-05T15:21:32.776Z,37.66
2022-12-05T15:24:01.502Z,38.23
2022-12-05T15:26:46.132Z,37.48
2022-12-05T15:29:17.189Z,37.86
2022-12-05T15:31:46.860Z,38.10
2022-12-05T15:34:17.980Z,37.38
2022-12-05T15:36:49.930Z,37.87
2022-12-05T15:39:23.717Z,37.84
2022-12-05T15:41:52.920Z,37.53
2022-12-05T15:44:26.862Z,37.88
2022-12-05T15:46:57.453Z,37.89
2022-12-05T15:49:26.610Z,37.32
2022-12-05T15:51:58.276Z,38.01
2022-12-05T15:54:30.266Z,37.37
2022-12-05T15:57:01.725Z,37.64
2022-12-05T15:59:32.868Z,37.27
2022-12-05T16:02:04.104Z,37.43
2022-12-05T16:04:33.269Z,37.31
2022-12-05T16:07:05.312Z,37.90
2022-12-05T16:09:34.171Z,37.23
2022-12-05T16:12:03.183Z,37.52
2022-12-05T16:17:21.521Z,37.84
2022-12-05T16:19:49.920Z,37.26
2022-12-05T16:22:22.660Z,37.40
2022-12-05T16:24:56.446Z,37.57
2022-12-05T16:27:25.632Z,37.63
2022-12-05T16:30:09.149Z,37.20
2022-12-05T16:32:37.485Z,37.15
2022-12-05T16:35:06.271Z,37.45
2022-12-05T16:37:36.592Z,37.61
2022-12-05T16:40:05.202Z,37.69
2022-12-05T16:42:33.605Z,37.67
2022-12-05T16:45:05.002Z,37.83
2022-12-05T16:47:57.704Z,37.78
2022-12-05T16:50:30.365Z,37.52
2022-12-05T16:53:04.483Z,38.35
2022-12-05T16:55:37.314Z,38.35
2022-12-05T16:58:05.824Z,37.90
2022-12-05T17:00:34.290Z,38.19
2022-12-05T17:03:32.280Z,37.97
2022-12-05T17:05:50.861Z,38.30
2022-12-05T17:08:20.602Z,37.86
2022-12-05T17:10:49.358Z,38.12
2022-12-05T17:13:18.098Z,38.36
2022-12-05T17:15:46.422Z,38.46
2022-12-05T17:18:15.309Z,37.90
2022-12-05T17:20:44.247Z,37.88
2022-12-05T17:23:13.547Z,38.17
2022-12-05T17:25:45.363Z,38.09
2022-12-05T17:28:13.662Z,38.12
2022-12-05T17:30:42.237Z,37.89
2022-12-05T17:33:13.692Z,37.67
2022-12-05T17:35:43.948Z,38.23
2022-12-05T17:38:12.372Z,38.22
2022-12-05T17:40:42.400Z,38.50
2022-12-05T17:43:13.528Z,37.68
2022-12-05T17:45:43.896Z,38.10
2022-12-05T17:48:13.919Z,37.79
2022-12-05T17:50:42.172Z,38.33
2022-12-05T17:53:10.816Z,37.62
2022-12-05T17:55:41.158Z,37.96
2022-12-05T17:58:10.088Z,38.18
2022-12-05T18:00:42.758Z,38.23
2022-12-05T18:03:12.533Z,37.63
2022-12-05T18:05:46.648Z,38.27
2022-12-05T18:08:25.274Z,38.31
2022-12-05T18:10:54.093Z,37.78
2022-12-05T18:13:22.499Z,37.83
2022-12-05T18:15:57.298Z,37.55
2022-12-05T18:18:27.425Z,37.68
2022-12-05T18:21:05.283Z,38.15
2022-12-05T18:23:33.473Z,38.30
2022-12-05T18:26:01.609Z,38.25
2022-12-05T18:28:29.993Z,38.36
2022-12-05T18:31:06.998Z,37.91
2022-12-05T18:33:35.253Z,38.18
2022-12-05T18:36:08.052Z,38.40
2022-12-05T18:38:36.703Z,38.41
2022-12-05T18:41:05.003Z,38.26
2022-12-05T18:43:33.233Z,38.72
2022-12-05T18:46:02.283Z,38.70
2022-12-05T18:48:42.744Z,39.55
2022-12-05T18:51:15.595Z,39.53
2022-12-05T18:53:51.601Z,39.64
2022-12-05T18:56:22.766Z,39.75
2022-12-05T18:58:56.216Z,39.63
2022-12-05T19:01:24.513Z,39.31
2022-12-05T19:03:54.377Z,39.58
2022-12-05T19:06:23.409Z,39.72
2022-12-05T19:08:53.941Z,39.91
2022-12-05T19:11:22.316Z,40.25
2022-12-05T19:13:51.195Z,40.06
2022-12-05T19:16:19.506Z,40.68
2022-12-05T19:18:48.020Z,40.60
2022-12-05T19:21:17.641Z,40.08
2022-12-05T19:23:45.747Z,40.72
2022-12-05T19:26:13.870Z,40.26
2022-12-05T19:28:42.056Z,40.80
2022-12-05T19:31:11.094Z,40.83
2022-12-05T19:33:40.905Z,40.84
2022-12-05T19:36:11.633Z,40.46
2022-12-05T19:38:42.340Z,40.86
2022-12-05T19:41:11.677Z,40.53
2022-12-05T19:43:40.121Z,40.96
2022-12-05T19:46:09.196Z,40.91
2022-12-05T19:48:37.824Z,40.30
2022-12-05T19:51:06.354Z,40.51
2022-12-05T19:53:35.529Z,40.38
2022-12-05T19:56:06.420Z,40.86
2022-12-05T19:58:35.067Z,40.38
2022-12-05T20:01:08.932Z,40.52
2022-12-05T20:03:38.641Z,40.53
2022-12-05T20:06:07.186Z,40.52
2022-12-05T20:08:35.632Z,40.69
2022-12-05T20:11:09.409Z,40.17
2022-12-05T20:13:46.419Z,39.97
2022-12-05T20:16:15.437Z,40.39
2022-12-05T20:18:43.603Z,40.04
2022-12-05T20:21:12.891Z,39.96
2022-12-05T20:23:41.034Z,40.01
2022-12-05T20:26:12.206Z,40.48
2022-12-05T20:28:40.687Z,40.37
2022-12-05T20:31:09.859Z,39.84
2022-12-05T20:33:38.187Z,40.09
2022-12-05T20:36:07.258Z,39.72
2022-12-05T20:38:35.573Z,39.66
2022-12-05T20:41:04.237Z,40.14
2022-12-05T20:43:33.813Z,40.15
2022-12-05T20:46:06.478Z,39.66
2022-12-05T20:48:35.118Z,39.92
2022-12-05T20:51:06.564Z,40.20
2022-12-05T20:53:35.924Z,40.23
2022-12-05T20:56:06.182Z,39.97
2022-12-05T20:58:36.038Z,40.09
2022-12-05T21:01:05.578Z,39.75
2022-12-05T21:03:35.255Z,40.11
2022-12-05T21:06:08.328Z,40.46
2022-12-05T21:08:42.638Z,40.26
2022-12-05T21:11:11.216Z,39.98
2022-12-05T21:13:47.073Z,40.10
2022-12-05T21:16:17.079Z,39.61
2022-12-05T21:18:45.679Z,39.62
2022-12-05T21:21:14.711Z,40.12
2022-12-05T21:23:42.939Z,40.46
2022-12-05T21:26:12.278Z,39.52
2022-12-05T21:28:42.003Z,40.20
2022-12-05T21:31:11.665Z,39.88
2022-12-05T21:33:40.060Z,40.12
2022-12-05T21:36:08.641Z,40.12
2022-12-05T21:38:37.070Z,40.13
2022-12-05T21:41:05.386Z,39.58
2022-12-05T21:43:34.436Z,40.13
2022-12-05T21:46:04.127Z,39.57
2022-12-05T21:48:32.549Z,39.87
2022-12-05T21:51:00.932Z,39.99
2022-12-05T21:53:29.527Z,39.86
2022-12-05T21:56:01.168Z,39.52
2022-12-05T21:58:29.652Z,39.51
2022-12-05T22:00:57.851Z,39.89
2022-12-05T22:03:27.968Z,39.92
2022-12-05T22:06:01.763Z,39.51
2022-12-05T22:08:30.526Z,39.69
2022-12-05T22:11:05.271Z,40.00
2022-12-05T22:13:33.604Z,39.42
2022-12-05T22:16:02.174Z,39.50
2022-12-05T22:18:32.147Z,39.54
2022-12-05T22:21:00.761Z,39.45
2022-12-05T22:23:29.052Z,39.62
2022-12-05T22:25:58.944Z,39.54
2022-12-05T22:28:27.381Z,39.75
2022-12-05T22:30:56.241Z,39.70
2022-12-05T22:33:24.637Z,39.13
2022-12-05T22:35:55.421Z,39.69
2022-12-05T22:38:23.884Z,39.44
2022-12-05T22:40:55.837Z,39.41
2022-12-05T22:43:25.072Z,39.53
2022-12-05T22:45:53.313Z,39.63
2022-12-05T22:48:21.767Z,39.47
2022-12-05T22:50:50.168Z,39.32
2022-12-05T22:53:21.088Z,39.40
2022-12-05T22:55:49.633Z,39.49
2022-12-05T22:58:18.031Z,39.24
2022-12-05T23:00:47.426Z,39.28
2022-12-05T23:03:15.956Z,39.33
2022-12-05T23:05:45.065Z,39.26
2022-12-05T23:08:13.575Z,39.23
2022-12-05T23:10:43.341Z,39.17
2022-12-05T23:13:11.558Z,39.29
2022-12-05T23:15:40.017Z,38.98
2022-12-05T23:18:08.793Z,38.90
2022-12-05T23:20:37.181Z,39.44
2022-12-05T23:23:05.447Z,39.37
2022-12-05T23:25:33.767Z,39.50
2022-12-05T23:28:03.433Z,39.44
2022-12-05T23:30:31.701Z,39.06
2022-12-05T23:32:59.782Z,38.80
2022-12-05T23:35:27.993Z,39.00
2022-12-05T23:37:56.134Z,39.30
2022-12-05T23:40:24.631Z,39.04
2022-12-05T23:42:52.716Z,38.74
2022-12-05T23:45:22.250Z,38.86
2022-12-05T23:47:50.340Z,39.06
2022-12-05T23:50:18.625Z,39.00
2022-12-05T23:52:46.693Z,39.06
2022-12-05T23:55:15.036Z,39.02
2022-12-05T23:57:43.165Z,38.55
